Time;durP1;ratioP1;P1;durP2;ratioP2;P2;SDS_P1;SDS_P2;PMS_P1;PMS_P2;Temp;Humidity;BMP_temperature;BMP_pressure;BME280_temperature;BME280_humidity;BME280_pressure;Samples;Min_cycle;Max_cycle;Signal;HPM_P1;HPM_P2
2022/07/21 00:01:18;;;;;;;17.95;10.30;;;20.10;99.90;;;;;;5026158;28;20061;-72
2022/07/21 00:03:43;;;;;;;14.25;11.10;;;20.00;99.90;;;;;;5028813;28;20045;-73
2022/07/21 00:06:09;;;;;;;13.93;10.80;;;19.90;99.90;;;;;;5009142;28;20118;-74
2022/07/21 00:08:35;;;;;;;16.38;12.48;;;19.90;99.90;;;;;;4995766;28;20125;-75
2022/07/21 00:11:01;;;;;;;19.50;12.27;;;19.80;99.90;;;;;;5009038;28;20125;-75
2022/07/21 00:13:26;;;;;;;17.42;12.82;;;19.80;99.90;;;;;;5033505;28;20042;-75
2022/07/21 00:15:53;;;;;;;17.52;12.73;;;19.80;99.90;;;;;;4998589;28;20042;-74
2022/07/21 00:18:20;;;;;;;19.08;13.43;;;19.80;99.90;;;;;;4998799;28;20042;-73
2022/07/21 00:20:46;;;;;;;24.33;14.32;;;19.70;99.90;;;;;;5000929;28;20121;-73
2022/07/21 00:23:12;;;;;;;22.73;15.00;;;19.70;99.90;;;;;;5000188;28;20045;-72
2022/07/21 00:25:38;;;;;;;17.02;13.32;;;19.60;99.90;;;;;;5032699;28;20060;-71
2022/07/21 00:28:05;;;;;;;19.52;12.43;;;19.60;99.90;;;;;;5016055;28;20037;-69
2022/07/21 00:30:31;;;;;;;19.10;14.32;;;19.60;99.90;;;;;;5016927;28;20725;-68
2022/07/21 00:32:57;;;;;;;26.27;15.32;;;19.60;99.90;;;;;;5031201;28;20104;-69
2022/07/21 00:35:23;;;;;;;20.48;16.23;;;19.60;99.90;;;;;;5036457;28;20174;-69
2022/07/21 00:37:49;;;;;;;23.88;16.55;;;19.50;99.90;;;;;;4996773;28;20080;-69
2022/07/21 00:40:15;;;;;;;21.52;15.57;;;19.50;99.90;;;;;;5014171;28;20489;-69
2022/07/21 00:42:42;;;;;;;22.92;14.15;;;19.50;99.90;;;;;;4995057;28;20044;-68
2022/07/21 00:45:09;;;;;;;28.75;16.85;;;19.40;99.90;;;;;;5012591;28;20048;-68
2022/07/21 00:47:35;;;;;;;30.95;17.33;;;19.50;99.90;;;;;;4981224;28;20156;-68
2022/07/21 00:50:05;;;;;;;30.92;18.00;;;19.40;99.90;;;;;;5016305;28;20037;-68
2022/07/21 00:52:30;;;;;;;23.42;16.00;;;19.40;99.90;;;;;;4997657;28;20052;-68
2022/07/21 00:54:56;;;;;;;35.78;19.48;;;19.40;99.90;;;;;;5015848;28;20026;-67
2022/07/21 00:57:22;;;;;;;29.30;18.35;;;19.30;99.90;;;;;;4995326;28;20069;-67
2022/07/21 00:59:48;;;;;;;25.45;17.70;;;19.30;99.90;;;;;;5013783;28;20137;-67
2022/07/21 01:02:15;;;;;;;26.75;18.52;;;19.30;99.90;;;;;;5016319;28;20122;-67
2022/07/21 01:04:41;;;;;;;24.73;17.50;;;19.30;99.90;;;;;;5012813;28;20061;-67
2022/07/21 01:07:07;;;;;;;23.10;17.45;;;19.30;99.90;;;;;;5016339;28;20046;-67
2022/07/21 01:09:34;;;;;;;47.40;21.30;;;19.20;99.90;;;;;;5016470;28;20092;-68
2022/07/21 01:12:00;;;;;;;23.67;16.55;;;19.10;99.90;;;;;;5017585;28;20041;-68
2022/07/21 01:14:27;;;;;;;27.95;17.52;;;19.20;99.90;;;;;;5014091;28;20127;-68
2022/07/21 01:16:52;;;;;;;24.85;16.90;;;19.10;99.90;;;;;;5014843;28;20049;-68
2022/07/21 01:19:18;;;;;;;26.00;16.75;;;19.10;99.90;;;;;;5015300;28;20484;-68
2022/07/21 01:21:46;;;;;;;26.75;16.70;;;19.10;99.90;;;;;;5015343;28;20042;-67
2022/07/21 01:24:12;;;;;;;24.95;16.00;;;19.00;99.90;;;;;;5009348;28;20041;-67
2022/07/21 01:26:43;;;;;;;31.65;18.25;;;18.90;99.90;;;;;;5011762;28;20049;-67
2022/07/21 01:29:10;;;;;;;27.35;17.05;;;18.90;99.90;;;;;;5011686;28;20049;-67
2022/07/21 01:31:36;;;;;;;30.50;19.88;;;18.90;99.90;;;;;;5013168;28;20046;-67
2022/07/21 01:34:02;;;;;;;39.88;19.73;;;18.90;99.90;;;;;;5011414;28;20103;-67
2022/07/21 01:36:28;;;;;;;25.55;18.27;;;18.80;99.90;;;;;;4998654;28;20045;-67
2022/07/21 01:41:38;;;;;;;30.70;20.38;;;18.80;99.90;;;;;;5014902;28;20420;-67
2022/07/21 01:44:07;;;;;;;32.95;21.15;;;18.80;99.90;;;;;;5009609;28;20038;-68
2022/07/21 01:46:39;;;;;;;48.22;23.05;;;18.80;99.90;;;;;;5013219;28;20050;-68
2022/07/21 01:49:06;;;;;;;35.92;21.25;;;18.80;99.90;;;;;;5011146;28;20121;-68
2022/07/21 01:51:32;;;;;;;37.03;22.35;;;18.80;99.90;;;;;;5013523;28;20042;-67
2022/07/21 01:53:58;;;;;;;33.58;21.38;;;18.70;99.90;;;;;;5011346;28;20137;-67
2022/07/21 01:56:25;;;;;;;36.20;22.95;;;18.80;99.90;;;;;;5013710;28;20132;-65
2022/07/21 01:58:54;;;;;;;48.20;25.05;;;18.70;99.90;;;;;;5011700;28;20064;-66
2022/07/21 02:01:22;;;;;;;34.05;21.88;;;18.70;99.90;;;;;;5011750;28;20050;-66
2022/07/21 02:03:47;;;;;;;38.85;23.25;;;18.60;99.90;;;;;;5011942;28;20425;-66
2022/07/21 02:06:14;;;;;;;27.30;19.67;;;18.60;99.90;;;;;;5012429;28;20042;-67
2022/07/21 02:08:42;;;;;;;25.58;18.70;;;18.60;99.90;;;;;;5016891;28;20052;-67
2022/07/21 02:11:08;;;;;;;27.17;19.65;;;18.60;99.90;;;;;;4993315;28;20055;-67
2022/07/21 02:13:35;;;;;;;39.03;20.25;;;18.50;99.90;;;;;;5010604;28;20049;-67
2022/07/21 02:16:01;;;;;;;28.48;19.33;;;18.50;99.90;;;;;;4991561;28;20198;-68
2022/07/21 02:18:26;;;;;;;25.63;18.88;;;18.50;99.90;;;;;;5006627;28;20474;-68
2022/07/21 02:20:53;;;;;;;39.08;22.42;;;18.50;99.90;;;;;;5003630;28;20049;-68
2022/07/21 02:23:18;;;;;;;28.33;20.08;;;18.50;99.90;;;;;;4996990;28;20065;-68
2022/07/21 02:25:44;;;;;;;49.15;24.00;;;18.50;99.90;;;;;;5011661;28;20516;-68
2022/07/21 02:28:10;;;;;;;43.38;22.38;;;18.50;99.90;;;;;;4995853;28;20053;-68
2022/07/21 02:30:36;;;;;;;29.05;21.00;;;18.50;99.90;;;;;;5011145;28;20382;-67
2022/07/21 02:33:02;;;;;;;48.88;23.67;;;18.60;99.90;;;;;;5002660;28;20162;-67
2022/07/21 02:35:27;;;;;;;38.03;23.80;;;18.50;99.90;;;;;;4992571;28;20139;-67
2022/07/21 02:37:53;;;;;;;82.43;28.65;;;18.60;99.90;;;;;;5011620;28;20041;-67
2022/07/21 02:40:19;;;;;;;58.63;25.42;;;18.60;99.90;;;;;;5007597;28;20042;-66
2022/07/21 02:42:45;;;;;;;31.65;20.70;;;18.60;99.90;;;;;;5011230;28;20030;-66
2022/07/21 02:45:10;;;;;;;25.00;17.20;;;18.60;99.90;;;;;;5026498;28;20177;-66
2022/07/21 02:47:52;;;;;;;25.55;18.33;;;18.60;99.90;;;;;;5009383;28;20173;-66
2022/07/21 02:50:19;;;;;;;36.47;22.08;;;18.60;99.90;;;;;;5009642;28;20038;-66
2022/07/21 02:52:45;;;;;;;28.40;20.40;;;18.50;99.90;;;;;;5011158;28;20038;-66
2022/07/21 02:55:11;;;;;;;70.85;27.17;;;18.50;99.90;;;;;;4995942;28;20065;-66
2022/07/21 02:57:37;;;;;;;26.60;20.27;;;18.60;99.90;;;;;;5011111;28;20042;-67
2022/07/21 03:00:08;;;;;;;61.22;26.13;;;18.50;99.90;;;;;;5009661;28;20133;-67
2022/07/21 03:02:34;;;;;;;37.88;23.45;;;18.50;99.90;;;;;;5010238;28;20053;-66
2022/07/21 03:04:59;;;;;;;54.33;24.92;;;18.60;99.90;;;;;;4993397;28;20065;-67
2022/07/21 03:07:25;;;;;;;46.22;25.65;;;18.50;99.90;;;;;;5010927;28;20048;-67
2022/07/21 03:09:51;;;;;;;37.25;24.13;;;18.50;99.90;;;;;;5010915;28;20030;-67
2022/07/21 03:12:17;;;;;;;92.05;30.77;;;18.50;99.90;;;;;;5010908;28;20628;-67
2022/07/21 03:14:42;;;;;;;49.25;27.25;;;18.50;99.90;;;;;;5009476;28;20434;-66
2022/07/21 03:17:08;;;;;;;124.13;37.08;;;18.50;99.90;;;;;;5026437;28;20702;-66
2022/07/21 03:19:34;;;;;;;30.65;23.85;;;18.60;99.90;;;;;;5010473;28;20423;-66
2022/07/21 03:21:59;;;;;;;74.15;31.02;;;18.50;99.90;;;;;;5009940;28;20049;-66
2022/07/21 03:24:25;;;;;;;46.17;28.95;;;18.60;99.90;;;;;;5010030;28;20439;-66
2022/07/21 03:26:51;;;;;;;57.15;29.83;;;18.60;99.90;;;;;;4994684;28;20128;-66
2022/07/21 03:29:17;;;;;;;72.47;35.33;;;18.60;99.90;;;;;;5009616;28;20462;-66
2022/07/21 03:31:42;;;;;;;100.20;35.03;;;18.60;99.90;;;;;;5011146;28;20486;-66
2022/07/21 03:34:08;;;;;;;101.57;38.40;;;18.60;99.90;;;;;;4992665;28;20501;-66
2022/07/21 03:36:34;;;;;;;94.30;36.60;;;18.60;99.90;;;;;;5010140;28;20046;-66
2022/07/21 03:38:59;;;;;;;62.95;33.45;;;18.60;99.90;;;;;;5023906;28;20129;-66
2022/07/21 03:41:25;;;;;;;42.20;27.33;;;18.50;99.90;;;;;;5009565;28;20470;-66
2022/07/21 03:43:51;;;;;;;116.15;41.13;;;18.60;99.90;;;;;;5009094;28;20050;-66
2022/07/21 03:46:16;;;;;;;51.33;32.85;;;18.60;99.90;;;;;;5009549;28;20124;-66
2022/07/21 03:48:42;;;;;;;49.92;31.38;;;18.60;99.90;;;;;;5009090;28;20161;-66
2022/07/21 03:51:09;;;;;;;39.63;29.58;;;18.60;99.90;;;;;;5003935;28;20069;-66
2022/07/21 03:53:35;;;;;;;57.40;34.92;;;18.60;99.90;;;;;;5005380;28;20034;-66
2022/07/21 03:56:01;;;;;;;175.02;51.85;;;18.60;99.90;;;;;;5010579;28;20162;-66
2022/07/21 03:58:26;;;;;;;211.43;55.35;;;18.70;99.90;;;;;;4993265;28;20139;-66
2022/07/21 04:00:52;;;;;;;56.08;38.58;;;18.70;99.90;;;;;;5010578;28;20045;-66
2022/07/21 04:03:19;;;;;;;60.70;40.47;;;18.70;99.90;;;;;;5009554;28;20076;-66
2022/07/21 04:05:45;;;;;;;117.05;51.88;;;18.70;99.90;;;;;;5009877;28;20489;-66
2022/07/21 04:08:13;;;;;;;188.82;60.13;;;18.70;99.90;;;;;;5010573;28;20042;-66
2022/07/21 04:10:40;;;;;;;197.05;61.85;;;18.70;99.90;;;;;;5009917;28;20049;-66
2022/07/21 04:13:08;;;;;;;202.75;63.03;;;18.80;99.90;;;;;;5008995;28;20516;-66
2022/07/21 04:15:34;;;;;;;227.30;68.35;;;18.80;99.90;;;;;;5004682;28;20466;-67
2022/07/21 04:18:00;;;;;;;69.53;48.45;;;18.80;99.90;;;;;;5009655;28;20033;-66
2022/07/21 04:20:26;;;;;;;209.98;63.15;;;18.90;99.90;;;;;;5010387;28;20091;-66
2022/07/21 04:22:53;;;;;;;56.28;44.22;;;18.80;99.90;;;;;;5009474;28;20042;-66
2022/07/21 04:25:20;;;;;;;93.40;53.55;;;18.80;99.90;;;;;;5008059;28;20044;-66
2022/07/21 04:27:47;;;;;;;130.15;57.67;;;18.90;99.90;;;;;;5010066;28;20482;-66
2022/07/21 04:30:18;;;;;;;93.63;52.83;;;18.90;99.90;;;;;;5009003;28;20057;-66
2022/07/21 04:32:44;;;;;;;52.10;42.38;;;18.90;99.90;;;;;;5008421;28;20046;-66
2022/07/21 04:35:10;;;;;;;112.63;55.40;;;18.90;99.90;;;;;;4992490;28;20041;-66
2022/07/21 04:37:36;;;;;;;117.55;93.63;;;18.90;99.90;;;;;;4993861;28;20052;-67
2022/07/21 04:40:04;;;;;;;97.50;51.15;;;19.00;99.90;;;;;;5007149;28;20058;-67
2022/07/21 04:42:30;;;;;;;58.67;44.47;;;19.00;99.90;;;;;;5010084;28;20197;-67
2022/07/21 04:44:56;;;;;;;83.82;48.55;;;19.00;99.90;;;;;;5024490;28;20553;-67
2022/07/21 04:47:22;;;;;;;175.38;61.80;;;19.00;99.90;;;;;;5009511;28;20038;-67
2022/07/21 04:49:47;;;;;;;90.05;47.17;;;19.00;99.90;;;;;;4991795;28;20133;-67
2022/07/21 04:52:13;;;;;;;86.15;48.30;;;19.00;99.90;;;;;;5024566;28;20353;-67
2022/07/21 04:54:39;;;;;;;59.53;43.60;;;19.00;99.90;;;;;;5009575;28;20516;-67
2022/07/21 04:57:05;;;;;;;75.22;46.72;;;19.00;99.90;;;;;;5010265;28;20180;-67
2022/07/21 04:59:32;;;;;;;144.27;59.13;;;19.00;99.90;;;;;;4999166;28;20097;-67
2022/07/21 05:01:58;;;;;;;107.40;53.05;;;19.00;99.90;;;;;;5013138;28;20628;-67
2022/07/21 05:04:25;;;;;;;94.82;50.90;;;19.00;99.90;;;;;;5001470;28;20143;-67
2022/07/21 05:06:51;;;;;;;52.95;44.03;;;19.00;99.90;;;;;;5010703;28;20184;-67
2022/07/21 05:09:16;;;;;;;51.45;43.85;;;19.00;99.90;;;;;;5000230;28;20557;-67
2022/07/21 05:11:42;;;;;;;127.05;56.42;;;19.00;99.90;;;;;;5013573;28;20033;-67
2022/07/21 05:14:08;;;;;;;176.02;61.35;;;19.00;99.90;;;;;;5005501;28;20037;-67
2022/07/21 05:16:34;;;;;;;168.32;64.05;;;19.00;99.90;;;;;;5013569;28;20201;-67
2022/07/21 05:18:59;;;;;;;60.95;47.50;;;19.00;99.90;;;;;;5003591;28;20046;-67
2022/07/21 05:21:25;;;;;;;188.82;64.53;;;19.00;99.90;;;;;;5010157;28;20038;-67
2022/07/21 05:23:51;;;;;;;56.10;44.00;;;19.00;99.90;;;;;;5002367;28;20474;-67
2022/07/21 05:26:16;;;;;;;216.13;70.88;;;19.00;99.90;;;;;;5005310;28;20164;-67
2022/07/21 05:28:43;;;;;;;74.00;50.55;;;19.10;99.90;;;;;;5027951;28;20034;-67
2022/07/21 05:31:08;;;;;;;96.95;56.75;;;19.10;99.90;;;;;;5012944;28;20046;-67
2022/07/21 05:33:35;;;;;;;61.17;49.33;;;19.10;99.90;;;;;;4996303;28;20382;-67
2022/07/21 05:36:00;;;;;;;71.43;48.85;;;19.10;99.90;;;;;;4994672;28;20193;-67
2022/07/21 05:38:26;;;;;;;49.22;42.90;;;19.20;99.90;;;;;;5009782;28;20125;-67
2022/07/21 05:40:52;;;;;;;49.58;43.00;;;19.20;99.90;;;;;;5005016;28;20042;-67
2022/07/21 05:43:17;;;;;;;48.92;42.08;;;19.20;99.90;;;;;;5013367;28;20046;-67
2022/07/21 05:45:43;;;;;;;45.70;40.65;;;19.20;99.90;;;;;;5011496;28;20088;-67
2022/07/21 05:48:09;;;;;;;45.05;40.25;;;19.30;99.90;;;;;;5010762;28;20036;-67
2022/07/21 05:50:34;;;;;;;41.85;37.63;;;19.40;99.90;;;;;;5014427;28;20038;-67
2022/07/21 05:53:00;;;;;;;44.03;39.15;;;19.30;99.90;;;;;;5013106;28;20474;-68
2022/07/21 05:55:26;;;;;;;42.90;37.83;;;19.40;99.90;;;;;;5012150;28;20041;-68
2022/07/21 05:57:52;;;;;;;51.28;41.78;;;19.50;99.90;;;;;;5027914;28;20613;-68
2022/07/21 06:00:17;;;;;;;39.97;35.83;;;19.50;99.90;;;;;;5013439;28;20046;-68
2022/07/21 06:02:45;;;;;;;38.70;34.85;;;19.50;99.90;;;;;;5030251;28;20517;-68
2022/07/21 06:05:11;;;;;;;38.78;34.95;;;19.70;99.90;;;;;;5012237;28;20116;-68
2022/07/21 06:07:37;;;;;;;40.15;36.13;;;19.80;99.90;;;;;;5011453;28;20049;-68
2022/07/21 06:10:03;;;;;;;39.08;35.13;;;19.90;99.90;;;;;;5003715;28;20029;-68
2022/07/21 06:12:31;;;;;;;49.22;41.20;;;20.00;99.90;;;;;;5012694;28;20042;-68
2022/07/21 06:14:57;;;;;;;41.28;36.83;;;20.20;99.90;;;;;;5011479;28;20038;-67
2022/07/21 06:17:23;;;;;;;41.13;36.83;;;20.20;99.90;;;;;;5010682;28;20149;-68
2022/07/21 06:19:48;;;;;;;35.10;31.83;;;20.20;99.90;;;;;;4998470;28;20038;-67
2022/07/21 06:22:14;;;;;;;36.50;32.70;;;20.10;99.90;;;;;;5011822;28;20041;-67
2022/07/21 06:24:40;;;;;;;37.55;33.88;;;20.10;99.90;;;;;;5024699;28;20062;-67
2022/07/21 06:27:05;;;;;;;37.03;33.17;;;20.10;99.90;;;;;;5012245;28;20046;-67
2022/07/21 06:29:31;;;;;;;35.38;31.90;;;20.00;99.90;;;;;;4997942;28;20053;-68
2022/07/21 06:31:57;;;;;;;37.25;33.75;;;19.80;99.90;;;;;;5010844;28;20050;-68
2022/07/21 06:34:23;;;;;;;39.30;35.05;;;19.80;99.90;;;;;;5001414;28;20100;-68
2022/07/21 06:36:48;;;;;;;38.80;34.97;;;19.70;99.90;;;;;;5014229;28;20101;-68
2022/07/21 06:39:14;;;;;;;39.83;35.97;;;19.70;99.90;;;;;;5011800;28;20121;-68
2022/07/21 06:41:40;;;;;;;38.53;34.45;;;19.70;99.90;;;;;;5012429;28;20109;-68
2022/07/21 06:44:06;;;;;;;44.95;39.17;;;19.60;99.90;;;;;;5011071;28;20045;-68
2022/07/21 06:46:33;;;;;;;42.55;38.03;;;19.60;99.90;;;;;;5011844;28;20421;-68
2022/07/21 06:48:58;;;;;;;45.30;37.65;;;19.60;99.90;;;;;;5011954;28;20042;-68
2022/07/21 06:51:24;;;;;;;40.92;36.63;;;19.70;99.90;;;;;;5011543;28;20044;-68
2022/07/21 06:53:50;;;;;;;41.40;37.22;;;19.70;99.90;;;;;;5011576;28;20034;-68
2022/07/21 06:56:17;;;;;;;42.85;38.25;;;19.80;99.90;;;;;;5011634;28;20095;-68
2022/07/21 06:58:43;;;;;;;44.17;39.58;;;19.80;99.90;;;;;;5002209;28;20113;-68
2022/07/21 07:01:08;;;;;;;45.80;40.75;;;20.00;99.90;;;;;;5000182;28;20046;-68
2022/07/21 07:03:34;;;;;;;41.97;37.70;;;20.00;99.90;;;;;;5027667;28;20049;-68
2022/07/21 07:06:00;;;;;;;37.10;33.22;;;20.00;99.90;;;;;;5026504;28;20371;-68
2022/07/21 07:08:26;;;;;;;40.83;36.42;;;20.00;99.90;;;;;;5013566;28;20038;-69
2022/07/21 07:10:51;;;;;;;36.42;32.72;;;20.00;99.90;;;;;;5010013;28;20065;-68
2022/07/21 07:13:17;;;;;;;40.20;35.83;;;20.00;99.90;;;;;;5011357;28;20058;-68
2022/07/21 07:15:44;;;;;;;44.85;38.72;;;20.00;99.90;;;;;;5001874;28;20486;-68
2022/07/21 07:18:10;;;;;;;39.90;35.70;;;20.00;99.90;;;;;;5010580;28;20053;-68
2022/07/21 07:20:36;;;;;;;42.63;37.55;;;20.00;99.90;;;;;;5010642;28;20068;-68
2022/07/21 07:23:02;;;;;;;42.17;37.92;;;20.00;99.90;;;;;;5007644;28;20041;-68
2022/07/21 07:25:28;;;;;;;42.33;37.97;;;20.00;99.90;;;;;;5026451;28;20053;-69
2022/07/21 07:27:55;;;;;;;41.05;36.80;;;20.20;99.90;;;;;;5010794;28;20034;-69
2022/07/21 07:30:20;;;;;;;40.60;36.50;;;20.20;99.90;;;;;;4991406;28;20406;-69
2022/07/21 07:32:49;;;;;;;38.80;34.83;;;20.30;99.90;;;;;;5009032;28;20034;-69
2022/07/21 07:35:15;;;;;;;43.95;39.17;;;20.40;99.90;;;;;;5002592;28;20043;-69
2022/07/21 07:37:44;;;;;;;38.88;34.95;;;20.50;99.90;;;;;;5012228;28;20045;-69
2022/07/21 07:40:13;;;;;;;41.05;36.60;;;20.60;99.90;;;;;;4990830;28;20058;-69
2022/07/21 07:42:39;;;;;;;36.90;33.20;;;20.80;99.90;;;;;;5010900;28;20483;-69
2022/07/21 07:45:06;;;;;;;37.83;33.90;;;20.80;99.90;;;;;;5009830;28;20130;-69
2022/07/21 07:47:32;;;;;;;41.22;37.03;;;20.90;99.90;;;;;;5023965;28;20058;-69
2022/07/21 07:49:58;;;;;;;40.67;36.72;;;20.90;99.90;;;;;;4996671;28;20026;-69
2022/07/21 07:52:24;;;;;;;39.67;35.83;;;20.90;99.90;;;;;;5008885;28;20042;-69
2022/07/21 07:54:50;;;;;;;41.85;37.40;;;20.90;99.90;;;;;;5009246;28;20041;-69
2022/07/21 07:57:16;;;;;;;41.28;36.88;;;20.80;99.90;;;;;;4990383;28;20417;-69
2022/07/21 07:59:42;;;;;;;41.95;37.53;;;20.70;99.90;;;;;;5026971;28;20057;-69
2022/07/21 08:02:08;;;;;;;40.92;36.85;;;20.70;99.90;;;;;;5010722;28;20482;-69
2022/07/21 08:04:35;;;;;;;43.00;38.55;;;20.80;99.90;;;;;;5008679;28;20046;-69
2022/07/21 08:07:01;;;;;;;46.28;41.53;;;20.80;99.90;;;;;;5024830;28;20069;-69
2022/07/21 08:09:27;;;;;;;42.03;37.80;;;21.10;99.90;;;;;;5010042;28;20081;-69
2022/07/21 08:11:52;;;;;;;41.70;37.35;;;21.50;99.90;;;;;;5009036;28;20045;-69
2022/07/21 08:14:18;;;;;;;40.58;36.45;;;21.90;99.90;;;;;;5009399;28;20243;-69
2022/07/21 08:16:45;;;;;;;38.78;34.88;;;22.30;99.90;;;;;;5008307;28;20119;-69
2022/07/21 08:19:10;;;;;;;36.45;32.85;;;22.80;99.90;;;;;;4993688;28;20046;-69
2022/07/21 08:21:36;;;;;;;33.92;30.73;;;23.30;99.90;;;;;;5025710;28;20041;-69
2022/07/21 08:24:03;;;;;;;35.47;32.00;;;23.80;99.90;;;;;;5009539;28;20079;-69
2022/07/21 08:26:29;;;;;;;34.70;31.48;;;24.10;99.90;;;;;;5009867;28;20046;-69
2022/07/21 08:28:56;;;;;;;34.47;31.27;;;23.80;99.90;;;;;;5008292;28;20038;-69
2022/07/21 08:31:23;;;;;;;37.92;34.28;;;23.60;99.90;;;;;;5008898;28;20042;-69
2022/07/21 08:33:49;;;;;;;33.30;30.20;;;23.50;99.90;;;;;;5011288;28;20046;-70
2022/07/21 08:36:15;;;;;;;31.30;28.55;;;23.70;99.90;;;;;;4999189;28;20521;-70
2022/07/21 08:38:41;;;;;;;28.88;26.13;;;23.80;99.90;;;;;;4996501;28;20046;-70
2022/07/21 08:41:08;;;;;;;30.45;27.65;;;24.10;99.90;;;;;;5017973;28;20053;-70
2022/07/21 08:43:34;;;;;;;28.70;26.08;;;24.50;99.90;;;;;;5013570;28;20056;-70
2022/07/21 08:46:00;;;;;;;26.35;23.95;;;24.70;99.90;;;;;;5011947;28;20049;-68
2022/07/21 08:48:27;;;;;;;25.98;23.73;;;24.60;99.90;;;;;;5012283;28;20108;-68
2022/07/21 08:50:53;;;;;;;27.10;24.67;;;24.80;99.90;;;;;;4996911;28;20046;-71
2022/07/21 08:53:19;;;;;;;25.77;23.48;;;25.20;99.90;;;;;;5028995;28;20455;-71
2022/07/21 08:55:45;;;;;;;25.83;23.63;;;25.20;99.90;;;;;;5030562;28;20092;-71
2022/07/21 08:58:12;;;;;;;26.50;24.00;;;25.10;99.90;;;;;;4994516;28;20062;-71
2022/07/21 09:00:40;;;;;;;23.92;21.73;;;24.80;99.90;;;;;;5026864;28;20045;-71
2022/07/21 09:03:10;;;;;;;23.58;21.38;;;24.60;99.90;;;;;;5000955;28;20061;-71
2022/07/21 09:05:36;;;;;;;25.38;23.08;;;24.40;99.90;;;;;;4993863;28;20103;-71
2022/07/21 09:08:02;;;;;;;26.58;24.27;;;24.40;99.90;;;;;;5027457;28;20058;-72
2022/07/21 09:10:30;;;;;;;24.95;22.67;;;24.30;99.90;;;;;;5011716;28;20060;-72
2022/07/21 09:13:05;;;;;;;24.80;22.48;;;24.30;99.90;;;;;;4996868;28;20107;-72
2022/07/21 09:15:32;;;;;;;23.92;21.77;;;24.40;99.90;;;;;;5003785;28;20042;-73
2022/07/21 09:18:10;;;;;;;25.02;22.83;;;24.40;99.90;;;;;;4995094;28;20046;-73
2022/07/21 09:20:37;;;;;;;23.52;21.33;;;24.40;99.90;;;;;;5026308;28;20042;-73
2022/07/21 09:23:11;;;;;;;23.27;21.05;;;24.30;99.90;;;;;;4999780;28;20042;-73
2022/07/21 09:25:46;;;;;;;21.25;19.35;;;24.20;99.90;;;;;;4992030;28;20433;-73
2022/07/21 09:28:18;;;;;;;22.13;20.08;;;24.20;99.90;;;;;;5032268;28;20042;-73
2022/07/21 09:31:05;;;;;;;26.10;23.60;;;24.10;99.90;;;;;;4997276;28;20081;-73
2022/07/21 09:33:35;;;;;;;27.38;24.88;;;24.10;99.90;;;;;;5014438;28;20074;-73
2022/07/21 09:36:09;;;;;;;26.45;23.85;;;24.00;99.90;;;;;;5025559;28;20033;-72
2022/07/21 09:38:51;;;;;;;32.17;29.17;;;23.90;99.90;;;;;;5027066;28;20038;-72
2022/07/21 09:41:20;;;;;;;34.35;30.92;;;23.70;99.90;;;;;;4993508;28;20046;-72
2022/07/21 09:43:52;;;;;;;37.58;34.05;;;23.40;99.90;;;;;;5010606;28;20458;-74
2022/07/21 09:46:29;;;;;;;37.95;34.25;;;23.20;99.90;;;;;;4993075;28;20217;-73
2022/07/21 09:48:58;;;;;;;41.13;36.92;;;23.00;99.90;;;;;;4993757;28;20038;-73
2022/07/21 09:51:33;;;;;;;40.15;36.20;;;22.80;99.90;;;;;;4991848;28;20046;-73
2022/07/21 09:54:09;;;;;;;39.38;35.70;;;22.60;99.90;;;;;;4978225;28;20034;-73
2022/07/21 09:56:40;;;;;;;39.83;35.90;;;22.40;99.90;;;;;;4983144;28;20038;-73
2022/07/21 09:59:08;;;;;;;42.10;37.80;;;22.30;99.90;;;;;;4995375;28;20148;-73
2022/07/21 10:01:38;;;;;;;40.10;36.22;;;22.20;99.90;;;;;;4994927;28;20041;-73
2022/07/21 10:04:05;;;;;;;39.42;35.47;;;22.00;99.90;;;;;;4995543;28;20042;-73
2022/07/21 10:06:39;;;;;;;45.03;40.22;;;21.90;99.90;;;;;;4978255;28;20062;-74
2022/07/21 10:09:07;;;;;;;42.53;38.20;;;21.80;99.90;;;;;;5027851;28;20045;-74
2022/07/21 10:11:33;;;;;;;41.65;37.47;;;21.70;99.90;;;;;;4994342;28;20049;-75
2022/07/21 10:13:59;;;;;;;44.33;39.75;;;21.60;99.90;;;;;;5027678;28;20545;-75
2022/07/21 10:16:25;;;;;;;48.00;42.55;;;21.50;99.90;;;;;;4994516;28;20474;-75
2022/07/21 10:19:21;;;;;;;45.65;41.08;;;21.40;99.90;;;;;;5011130;28;20498;-75
2022/07/21 10:22:13;;;;;;;46.47;41.58;;;21.40;99.90;;;;;;4991533;28;20050;-75
2022/07/21 10:24:40;;;;;;;45.17;40.42;;;21.30;99.90;;;;;;5028788;28;20497;-75
2022/07/21 10:27:08;;;;;;;49.20;43.85;;;21.10;99.90;;;;;;5026106;28;20113;-75
2022/07/21 10:30:02;;;;;;;46.08;41.15;;;21.10;99.90;;;;;;4995086;28;20038;-75
2022/07/21 10:32:34;;;;;;;49.15;43.83;;;21.00;99.90;;;;;;4992997;28;20076;-72
2022/07/21 10:35:22;;;;;;;49.85;44.40;;;21.00;99.90;;;;;;4996917;28;20033;-72
2022/07/21 10:37:48;;;;;;;49.55;44.13;;;20.90;99.90;;;;;;4990948;28;20481;-71
2022/07/21 10:40:20;;;;;;;48.88;43.97;;;20.90;99.90;;;;;;4999569;28;20041;-71
2022/07/21 10:43:01;;;;;;;43.95;39.40;;;20.90;99.90;;;;;;5025871;28;20509;-71
2022/07/21 10:45:39;;;;;;;49.33;43.97;;;20.90;99.90;;;;;;5028772;28;20042;-71
2022/07/21 10:48:07;;;;;;;52.92;43.15;;;20.90;99.90;;;;;;4992531;28;20543;-71
2022/07/21 10:50:41;;;;;;;48.13;42.97;;;20.90;99.90;;;;;;4996803;28;20124;-71
2022/07/21 10:53:19;;;;;;;;;;;20.90;99.90;;;;;;4993613;28;20060;-71
2022/07/21 10:55:53;;;;;;;46.38;41.50;;;20.90;99.90;;;;;;4995464;28;20434;-71
2022/07/21 10:58:27;;;;;;;46.75;41.78;;;21.00;99.90;;;;;;4994061;28;20085;-71
2022/07/21 11:00:57;;;;;;;;;;;21.10;99.90;;;;;;4995189;28;20037;-71
2022/07/21 11:03:33;;;;;;;46.25;41.30;;;21.20;99.90;;;;;;4998011;28;20413;-71
2022/07/21 11:06:27;;;;;;;46.78;41.88;;;21.40;99.90;;;;;;5028650;28;20045;-71
2022/07/21 11:09:06;;;;;;;44.30;39.80;;;21.60;99.90;;;;;;5023567;28;20038;-71
2022/07/21 11:11:34;;;;;;;44.70;39.92;;;21.80;99.90;;;;;;5006888;28;20367;-71
2022/07/21 11:14:11;;;;;;;43.80;39.25;;;21.90;99.90;;;;;;5006440;28;20062;-71
2022/07/21 11:16:49;;;;;;;43.72;39.05;;;21.90;99.90;;;;;;5027562;28;20168;-71
2022/07/21 11:19:34;;;;;;;43.42;39.22;;;21.90;99.90;;;;;;5025341;28;20042;-71
2022/07/21 11:22:04;;;;;;;45.10;40.25;;;22.00;99.90;;;;;;5012671;28;20141;-71
2022/07/21 11:24:30;;;;;;;36.83;33.20;;;22.00;99.90;;;;;;5022501;28;20112;-72
2022/07/21 11:26:59;;;;;;;37.17;33.28;;;21.90;99.90;;;;;;4996300;28;20049;-71
2022/07/21 11:29:26;;;;;;;35.53;31.92;;;21.90;99.90;;;;;;4992002;28;20124;-71
2022/07/21 11:31:52;;;;;;;35.75;32.20;;;21.80;99.90;;;;;;4997437;28;20291;-71
2022/07/21 11:34:18;;;;;;;37.50;33.58;;;21.70;99.90;;;;;;5008351;28;20046;-71
2022/07/21 11:36:44;;;;;;;38.50;34.70;;;21.60;99.90;;;;;;4981347;28;20367;-71
2022/07/21 11:39:15;;;;;;;39.20;35.25;;;21.60;99.90;;;;;;4991820;28;20120;-71
2022/07/21 11:41:42;;;;;;;38.95;35.13;;;21.50;99.90;;;;;;4993335;28;20088;-71
2022/07/21 11:44:10;;;;;;;39.33;35.45;;;21.40;99.90;;;;;;5009646;28;20559;-71
2022/07/21 11:46:46;;;;;;;38.95;34.92;;;21.40;99.90;;;;;;4995183;28;20117;-71
2022/07/21 11:49:11;;;;;;;41.58;37.38;;;21.50;99.90;;;;;;5026610;28;20045;-71
2022/07/21 11:51:37;;;;;;;41.03;37.10;;;21.70;99.90;;;;;;5027891;28;20414;-72
2022/07/21 11:54:03;;;;;;;38.15;34.33;;;21.90;99.90;;;;;;5009543;28;20060;-73
2022/07/21 11:56:37;;;;;;;37.42;33.67;;;22.10;99.90;;;;;;5025471;28;20046;-72
2022/07/21 11:59:10;;;;;;;33.92;30.38;;;22.60;99.90;;;;;;5022177;28;20066;-72
2022/07/21 12:01:53;;;;;;;;;;;22.90;99.90;;;;;;5027671;28;20559;-72
2022/07/21 12:04:34;;;;;;;33.08;29.98;;;23.00;99.90;;;;;;4991494;28;19918;-72
2022/07/21 12:07:01;;;;;;;34.17;30.80;;;22.90;99.90;;;;;;4979754;28;20070;-72
2022/07/21 12:09:27;;;;;;;32.50;29.48;;;22.90;99.90;;;;;;4992772;28;20084;-72
2022/07/21 12:11:53;;;;;;;34.47;31.02;;;22.80;99.90;;;;;;4995395;28;20041;-72
2022/07/21 12:14:19;;;;;;;34.33;31.00;;;22.70;99.90;;;;;;4993766;28;20528;-72
2022/07/21 12:16:52;;;;;;;34.85;31.70;;;22.70;99.90;;;;;;4978089;28;20088;-72
2022/07/21 12:19:19;;;;;;;36.17;32.78;;;22.60;99.90;;;;;;5025864;28;20042;-72
2022/07/21 12:21:47;;;;;;;34.70;31.40;;;22.60;99.90;;;;;;4993384;28;20045;-72
2022/07/21 12:24:13;;;;;;;30.67;27.65;;;22.50;99.90;;;;;;4992946;28;20042;-72
2022/07/21 12:26:39;;;;;;;29.15;26.38;;;22.40;99.90;;;;;;5025021;28;20453;-72
2022/07/21 12:29:05;;;;;;;23.45;21.08;;;22.40;99.90;;;;;;5025532;28;20062;-73
2022/07/21 12:31:34;;;;;;;19.15;17.35;;;22.30;99.90;;;;;;5024920;28;20053;-73
2022/07/21 12:34:14;;;;;;;18.20;16.58;;;22.30;99.90;;;;;;5028550;28;20128;-73